Time;durP1;ratioP1;P1;durP2;ratioP2;P2;SDS_P1;SDS_P2;PMS_P1;PMS_P2;Temp;Humidity;BMP_temperature;BMP_pressure;BME280_temperature;BME280_humidity;BME280_pressure;Samples;Min_cycle;Max_cycle;Signal;HPM_P1;HPM_P2
2023/12/01 00:00:39;;;;;;;15.13;4.72;;;2.20;99.90;;;;;;5070758;28;20275;-19
2023/12/01 00:03:05;;;;;;;15.07;5.07;;;4.50;99.90;;;;;;5055121;27;20036;-19
2023/12/01 00:05:31;;;;;;;17.40;5.40;;;3.60;99.90;;;;;;5071202;27;20024;-19
2023/12/01 00:07:57;;;;;;;19.23;5.03;;;4.50;99.90;;;;;;5088338;28;20505;-18
2023/12/01 00:10:22;;;;;;;15.33;4.97;;;4.60;99.90;;;;;;5082197;28;20023;-21
2023/12/01 00:12:48;;;;;;;16.65;5.45;;;4.60;99.90;;;;;;5087540;28;20481;-23
2023/12/01 00:15:14;;;;;;;15.37;5.10;;;4.60;99.90;;;;;;5071548;28;20044;-21
2023/12/01 00:17:40;;;;;;;21.30;6.45;;;4.60;99.90;;;;;;5069920;28;20457;-22
2023/12/01 00:20:06;;;;;;;18.00;6.20;;;4.60;99.90;;;;;;5059233;27;20123;-20
2023/12/01 00:22:32;;;;;;;16.40;5.65;;;4.60;99.90;;;;;;5072439;28;20244;-18
2023/12/01 00:24:58;;;;;;;17.70;6.00;;;4.60;99.90;;;;;;5082018;28;20032;-17
2023/12/01 00:27:23;;;;;;;17.73;5.60;;;4.70;99.90;;;;;;5078058;28;20393;-21
2023/12/01 00:29:49;;;;;;;18.15;6.57;;;4.60;99.90;;;;;;5074423;28;20527;-20
2023/12/01 00:32:15;;;;;;;17.70;5.67;;;4.60;99.90;;;;;;5072975;28;20040;-19
2023/12/01 00:34:41;;;;;;;18.55;5.88;;;4.60;99.90;;;;;;5054095;27;20276;-18
2023/12/01 00:37:08;;;;;;;18.98;7.05;;;4.60;99.90;;;;;;5084969;28;20031;-18
2023/12/01 00:39:33;;;;;;;20.70;6.43;;;3.50;99.90;;;;;;5069071;28;20273;-18
2023/12/01 00:41:59;;;;;;;19.77;6.45;;;4.50;99.90;;;;;;5093748;27;20039;-18
2023/12/01 00:44:25;;;;;;;22.30;6.87;;;4.60;99.90;;;;;;5075103;27;20078;-19
2023/12/01 00:46:50;;;;;;;22.13;6.50;;;4.50;99.90;;;;;;5070040;27;20481;-20
2023/12/01 00:49:16;;;;;;;16.67;5.78;;;4.50;99.90;;;;;;5062867;27;20028;-19
2023/12/01 00:51:43;;;;;;;19.10;6.43;;;3.80;99.90;;;;;;5073872;28;20130;-23
2023/12/01 00:54:09;;;;;;;16.10;6.10;;;4.50;99.90;;;;;;5074061;28;20040;-21
2023/12/01 00:56:35;;;;;;;18.95;6.30;;;4.50;99.90;;;;;;5084006;28;20349;-21
2023/12/01 00:59:01;;;;;;;17.77;6.30;;;4.50;99.90;;;;;;5084690;28;20044;-22
2023/12/01 01:01:26;;;;;;;16.67;5.80;;;3.00;99.90;;;;;;5062343;27;20028;-22
2023/12/01 01:03:52;;;;;;;19.53;6.73;;;4.50;99.90;;;;;;5086280;28;20024;-21
2023/12/01 01:06:18;;;;;;;17.92;5.93;;;4.50;99.90;;;;;;5057213;27;20032;-24
2023/12/01 01:08:43;;;;;;;18.57;7.07;;;4.50;99.90;;;;;;5075758;28;20229;-21
2023/12/01 01:11:09;;;;;;;18.50;5.95;;;4.50;99.90;;;;;;5084522;28;20092;-21
2023/12/01 01:13:35;;;;;;;19.30;6.63;;;4.50;99.90;;;;;;5079952;28;20116;-21
2023/12/01 01:16:00;;;;;;;18.20;6.03;;;4.50;99.90;;;;;;5074991;28;20051;-21
2023/12/01 01:18:26;;;;;;;19.67;6.07;;;4.70;99.90;;;;;;5071709;28;20282;-21
2023/12/01 01:20:52;;;;;;;20.88;6.88;;;4.50;99.90;;;;;;5066556;27;20036;-21
2023/12/01 01:23:18;;;;;;;17.23;6.30;;;4.50;99.90;;;;;;5069980;28;20340;-20
2023/12/01 01:25:43;;;;;;;17.75;6.47;;;4.40;99.90;;;;;;5077073;27;20043;-21
2023/12/01 01:28:09;;;;;;;19.10;6.37;;;4.40;99.90;;;;;;5078312;27;20048;-21
2023/12/01 01:30:36;;;;;;;16.13;6.40;;;4.40;99.90;;;;;;5085530;27;20024;-25
2023/12/01 01:33:01;;;;;;;19.93;6.33;;;4.40;99.90;;;;;;5063717;28;21087;-18
2023/12/01 01:35:27;;;;;;;18.60;5.90;;;4.40;99.90;;;;;;5085920;27;20023;-19
2023/12/01 01:37:53;;;;;;;17.90;6.23;;;4.40;99.90;;;;;;5058880;27;20020;-18
2023/12/01 01:40:18;;;;;;;17.75;6.20;;;4.30;99.90;;;;;;5073898;28;20499;-18
2023/12/01 01:42:44;;;;;;;18.87;6.83;;;4.20;99.90;;;;;;5085160;28;20050;-19
2023/12/01 01:45:10;;;;;;;19.25;6.95;;;4.20;99.90;;;;;;5082614;28;20485;-18
2023/12/01 01:47:36;;;;;;;13.27;5.45;;;4.20;99.90;;;;;;5075199;28;20074;-19
2023/12/01 01:50:04;;;;;;;12.37;5.20;;;4.10;99.90;;;;;;5077240;28;20541;-18
2023/12/01 01:52:30;;;;;;;20.60;6.80;;;4.10;99.90;;;;;;5063433;28;20073;-19
2023/12/01 01:54:56;;;;;;;16.33;6.10;;;4.10;99.90;;;;;;5073545;27;20604;-18
2023/12/01 01:57:22;;;;;;;16.48;5.88;;;4.00;99.90;;;;;;5086537;28;20024;-22
2023/12/01 01:59:48;;;;;;;16.25;6.55;;;4.00;99.90;;;;;;5082712;28;20124;-19
2023/12/01 02:02:14;;;;;;;14.63;5.73;;;4.00;99.90;;;;;;5073592;27;20031;-18
2023/12/01 02:04:40;;;;;;;15.30;5.72;;;4.00;99.90;;;;;;5075903;28;20386;-22
2023/12/01 02:07:08;;;;;;;15.75;5.68;;;4.00;99.90;;;;;;5056264;27;20401;-19
2023/12/01 02:09:34;;;;;;;13.68;5.45;;;4.00;99.90;;;;;;5087144;28;20024;-19
2023/12/01 02:12:00;;;;;;;16.47;5.67;;;4.10;99.90;;;;;;5070500;28;20643;-19
2023/12/01 02:14:26;;;;;;;15.32;6.55;;;4.00;99.90;;;;;;5068093;28;20096;-18
2023/12/01 02:16:52;;;;;;;16.65;6.20;;;4.00;99.90;;;;;;5072811;28;20268;-17
2023/12/01 02:19:18;;;;;;;17.93;6.43;;;4.00;99.90;;;;;;5083499;28;20485;-17
2023/12/01 02:21:47;;;;;;;17.75;6.32;;;4.00;99.90;;;;;;5055198;28;20034;-22
2023/12/01 02:24:14;;;;;;;15.80;5.82;;;4.00;99.90;;;;;;5083123;28;20070;-18
2023/12/01 02:26:40;;;;;;;19.67;6.50;;;4.00;99.90;;;;;;5075498;28;20035;-20
2023/12/01 02:29:06;;;;;;;15.85;5.57;;;4.00;99.90;;;;;;5085852;28;20572;-19
2023/12/01 02:31:35;;;;;;;17.43;6.17;;;4.00;99.90;;;;;;5083923;28;20038;-19
2023/12/01 02:34:01;;;;;;;20.23;7.03;;;4.00;99.90;;;;;;5073131;28;20401;-18
2023/12/01 02:36:27;;;;;;;19.30;6.70;;;4.00;99.90;;;;;;5076977;28;20036;-18
2023/12/01 02:38:52;;;;;;;16.10;6.20;;;4.00;99.90;;;;;;5056439;28;20711;-19
2023/12/01 02:41:18;;;;;;;22.67;7.63;;;4.00;99.90;;;;;;5081353;28;20028;-19
2023/12/01 02:43:44;;;;;;;20.30;7.10;;;4.00;99.90;;;;;;5069885;28;20035;-19
2023/12/01 02:46:14;;;;;;;18.20;6.82;;;6.10;99.90;;;;;;5084220;28;20111;-17
2023/12/01 02:48:40;;;;;;;19.40;6.88;;;4.10;99.90;;;;;;5069687;28;20057;-20
2023/12/01 02:51:07;;;;;;;17.67;7.05;;;4.10;99.90;;;;;;5075929;28;20245;-17
2023/12/01 02:53:33;;;;;;;23.58;8.73;;;4.00;99.90;;;;;;5057145;28;20044;-20
2023/12/01 02:55:59;;;;;;;20.27;7.17;;;4.10;99.90;;;;;;5082932;28;20028;-18
2023/12/01 02:58:25;;;;;;;17.67;7.00;;;4.10;99.90;;;;;;5072705;28;20040;-19
2023/12/01 03:00:51;;;;;;;19.65;7.22;;;4.10;99.90;;;;;;5079584;28;20066;-18
2023/12/01 03:03:17;;;;;;;22.53;7.50;;;4.10;99.90;;;;;;5081995;28;20035;-21
2023/12/01 03:05:42;;;;;;;19.48;7.50;;;4.10;99.90;;;;;;5076030;28;20052;-19
2023/12/01 03:08:08;;;;;;;19.13;6.37;;;4.10;99.90;;;;;;5047485;28;21956;-18
2023/12/01 03:10:35;;;;;;;11.93;4.47;;;4.10;99.90;;;;;;5081157;28;20278;-19
2023/12/01 03:13:00;;;;;;;15.48;6.07;;;4.10;99.90;;;;;;5078664;28;20545;-21
2023/12/01 03:15:26;;;;;;;15.17;6.27;;;4.10;99.90;;;;;;5083083;28;20039;-19
2023/12/01 03:17:52;;;;;;;16.92;6.75;;;4.10;99.90;;;;;;5079140;28;20197;-22
2023/12/01 03:20:18;;;;;;;22.45;7.22;;;4.10;99.90;;;;;;5057570;28;20378;-22
2023/12/01 03:22:50;;;;;;;20.97;7.47;;;4.10;99.90;;;;;;5076364;28;20039;-20
2023/12/01 03:25:17;;;;;;;17.58;5.97;;;4.10;99.90;;;;;;5064424;28;20019;-22
2023/12/01 03:27:45;;;;;;;20.77;7.72;;;4.10;99.90;;;;;;5079479;28;20045;-20
2023/12/01 03:30:15;;;;;;;21.40;7.53;;;4.10;99.90;;;;;;5080786;28;20020;-20
2023/12/01 03:32:52;;;;;;;19.77;7.80;;;4.10;99.90;;;;;;5081036;28;20073;-22
2023/12/01 03:35:20;;;;;;;16.73;6.30;;;4.10;99.90;;;;;;5072925;28;20384;-20
2023/12/01 03:37:46;;;;;;;17.77;6.50;;;4.10;99.90;;;;;;5080578;28;20715;-23
2023/12/01 03:40:13;;;;;;;15.20;5.78;;;4.10;99.90;;;;;;5066974;27;20425;-22
2023/12/01 03:42:48;;;;;;;18.33;7.03;;;2.10;99.90;;;;;;5085431;27;20032;-23
2023/12/01 03:45:15;;;;;;;19.25;6.72;;;4.10;99.90;;;;;;5076058;28;20390;-21
2023/12/01 03:47:49;;;;;;;18.77;6.40;;;4.10;99.90;;;;;;5084518;28;20477;-21
2023/12/01 03:50:18;;;;;;;23.75;8.32;;;4.10;99.90;;;;;;5075280;27;20062;-20
2023/12/01 03:52:46;;;;;;;19.30;6.93;;;4.10;99.90;;;;;;5083549;28;20036;-19
2023/12/01 03:55:12;;;;;;;13.95;5.03;;;4.10;99.90;;;;;;5061935;27;20057;-19
2023/12/01 03:57:39;;;;;;;16.23;6.47;;;1.80;99.90;;;;;;5084971;28;20076;-20
2023/12/01 04:00:13;;;;;;;17.40;6.57;;;4.10;99.90;;;;;;5071841;28;20308;-18
2023/12/01 04:02:41;;;;;;;16.05;6.22;;;4.10;99.90;;;;;;5074642;28;20047;-21
2023/12/01 04:05:08;;;;;;;19.30;6.50;;;4.10;99.90;;;;;;5076405;27;20273;-19
2023/12/01 04:07:35;;;;;;;18.88;7.18;;;4.10;99.90;;;;;;5087760;28;20032;-18
2023/12/01 04:10:03;;;;;;;19.70;7.32;;;4.20;99.90;;;;;;5050934;28;20295;-17
2023/12/01 04:12:30;;;;;;;17.53;6.37;;;5.80;99.90;;;;;;5087583;27;20094;-21
2023/12/01 04:14:56;;;;;;;19.73;7.03;;;4.20;99.90;;;;;;5084354;28;20323;-21
2023/12/01 04:17:22;;;;;;;17.02;6.10;;;4.20;99.90;;;;;;5075540;28;20404;-20
2023/12/01 04:19:48;;;;;;;14.57;5.18;;;4.20;99.90;;;;;;5070235;28;20227;-20
2023/12/01 04:22:13;;;;;;;19.53;7.07;;;3.30;99.90;;;;;;5076401;28;20053;-21
2023/12/01 04:24:40;;;;;;;20.35;7.47;;;4.20;99.90;;;;;;5083830;28;20055;-21
2023/12/01 04:27:06;;;;;;;17.30;6.57;;;4.10;99.90;;;;;;5047763;28;20040;-22
2023/12/01 04:29:32;;;;;;;17.53;6.40;;;4.20;99.90;;;;;;5085713;28;20024;-20
2023/12/01 04:31:58;;;;;;;17.75;6.57;;;4.20;99.90;;;;;;5071126;28;20654;-21
2023/12/01 04:34:26;;;;;;;19.23;6.20;;;4.10;99.90;;;;;;5082148;27;20435;-21
2023/12/01 04:36:54;;;;;;;16.40;5.90;;;4.20;99.90;;;;;;5069733;27;20047;-20
2023/12/01 04:39:20;;;;;;;16.45;5.97;;;4.10;99.90;;;;;;5074238;28;20115;-21
2023/12/01 04:41:49;;;;;;;17.63;6.18;;;4.10;99.90;;;;;;5059608;27;20039;-20
2023/12/01 04:44:14;;;;;;;14.95;5.63;;;4.10;99.90;;;;;;5085897;28;20036;-20
2023/12/01 04:46:40;;;;;;;13.97;4.73;;;4.20;99.90;;;;;;5076063;28;20020;-20
2023/12/01 04:49:08;;;;;;;15.77;5.73;;;4.10;99.90;;;;;;5079658;28;20392;-22
2023/12/01 04:51:36;;;;;;;13.77;5.00;;;4.10;99.90;;;;;;5076127;27;20534;-20
2023/12/01 04:54:04;;;;;;;15.90;5.93;;;4.10;99.90;;;;;;5085257;28;20349;-22
2023/12/01 04:56:31;;;;;;;15.13;5.18;;;4.10;99.90;;;;;;5051048;28;20050;-22
2023/12/01 04:58:56;;;;;;;15.05;5.90;;;4.10;99.90;;;;;;5080415;27;20048;-21
2023/12/01 05:01:22;;;;;;;16.00;5.27;;;4.10;99.90;;;;;;5079947;28;20139;-20
2023/12/01 05:03:48;;;;;;;9.83;3.87;;;4.20;99.90;;;;;;5076536;28;20505;-21
2023/12/01 05:06:14;;;;;;;11.52;3.78;;;4.00;99.90;;;;;;5086435;28;20028;-21
2023/12/01 05:08:39;;;;;;;15.23;4.70;;;4.10;99.90;;;;;;5077187;27;20764;-21
2023/12/01 05:11:05;;;;;;;18.53;6.27;;;4.00;99.90;;;;;;5087633;28;20119;-20
2023/12/01 05:13:31;;;;;;;22.45;6.80;;;4.00;99.90;;;;;;5056643;27;20054;-20
2023/12/01 05:15:57;;;;;;;16.88;6.07;;;4.00;99.90;;;;;;5082443;28;20201;-21
2023/12/01 05:18:22;;;;;;;16.53;5.63;;;4.00;99.90;;;;;;5074793;27;20050;-20
2023/12/01 05:20:49;;;;;;;16.70;5.70;;;3.90;99.90;;;;;;5078129;28;20081;-23
2023/12/01 05:23:15;;;;;;;22.07;7.10;;;3.90;99.90;;;;;;5073391;28;20181;-19
2023/12/01 05:25:46;;;;;;;17.73;6.18;;;3.90;99.90;;;;;;5081234;27;20247;-20
2023/12/01 05:28:11;;;;;;;15.02;5.22;;;3.90;99.90;;;;;;5084759;28;20110;-19
2023/12/01 05:30:41;;;;;;;14.80;5.37;;;2.70;99.90;;;;;;5054364;28;20575;-18
2023/12/01 05:33:06;;;;;;;16.80;5.65;;;3.90;99.90;;;;;;5076861;28;20059;-18
2023/12/01 05:35:35;;;;;;;18.07;5.77;;;3.90;99.90;;;;;;5071811;28;20426;-19
2023/12/01 05:38:01;;;;;;;16.00;4.90;;;3.90;99.90;;;;;;5091065;28;20549;-19
2023/12/01 05:40:34;;;;;;;19.95;5.93;;;4.00;99.90;;;;;;5072260;28;20031;-20
2023/12/01 05:43:00;;;;;;;17.00;5.78;;;3.90;99.90;;;;;;5083562;28;20047;-18
2023/12/01 05:45:27;;;;;;;15.83;5.53;;;3.80;99.90;;;;;;5055234;27;22098;-18
2023/12/01 05:47:54;;;;;;;13.10;4.40;;;3.80;99.90;;;;;;5071665;28;21185;-20
2023/12/01 05:50:28;;;;;;;14.57;5.10;;;3.80;99.90;;;;;;5049396;28;20528;-18
2023/12/01 05:52:56;;;;;;;19.23;6.68;;;3.80;99.90;;;;;;5087960;28;20034;-19
2023/12/01 05:55:27;;;;;;;16.92;5.65;;;5.40;99.90;;;;;;5074344;28;20085;-18
2023/12/01 05:58:07;;;;;;;17.98;5.60;;;3.80;99.90;;;;;;5081228;28;20502;-19
2023/12/01 06:00:33;;;;;;;17.77;5.60;;;3.80;99.90;;;;;;5038354;27;20935;-17
2023/12/01 06:03:01;;;;;;;15.95;5.15;;;3.40;99.90;;;;;;5080614;28;20418;-19
2023/12/01 06:05:28;;;;;;;16.02;5.68;;;3.70;99.90;;;;;;5057782;27;20421;-19
2023/12/01 06:08:00;;;;;;;13.20;4.50;;;3.70;99.90;;;;;;5073988;28;20023;-19
2023/12/01 06:10:27;;;;;;;16.02;6.03;;;5.90;99.90;;;;;;5071806;28;20212;-18
2023/12/01 06:12:53;;;;;;;15.27;5.07;;;3.70;99.90;;;;;;5084356;28;20052;-19
2023/12/01 06:15:19;;;;;;;14.52;5.18;;;3.70;99.90;;;;;;5058697;27;20434;-19
2023/12/01 06:17:47;;;;;;;14.20;4.80;;;3.80;99.90;;;;;;5081126;28;20040;-18
2023/12/01 06:20:17;;;;;;;14.05;4.60;;;3.70;99.90;;;;;;5070788;28;20035;-19
2023/12/01 06:23:06;;;;;;;14.88;4.80;;;3.70;99.90;;;;;;5055470;28;20232;-18
2023/12/01 06:25:35;;;;;;;14.20;4.83;;;4.00;99.90;;;;;;5070975;28;20020;-19
2023/12/01 06:28:03;;;;;;;12.95;4.40;;;3.90;99.90;;;;;;5083081;28;20027;-17
2023/12/01 06:30:33;;;;;;;17.25;4.75;;;3.80;99.90;;;;;;5054260;28;20638;-18
2023/12/01 06:33:03;;;;;;;16.73;4.80;;;3.80;99.90;;;;;;5081784;28;20031;-19
2023/12/01 06:35:29;;;;;;;14.80;4.65;;;3.80;99.90;;;;;;5058701;28;20489;-18
2023/12/01 06:37:55;;;;;;;18.87;5.77;;;3.50;99.90;;;;;;5085735;28;20035;-20
2023/12/01 06:40:20;;;;;;;18.02;5.88;;;3.70;99.90;;;;;;5068293;28;20032;-21
2023/12/01 06:42:51;;;;;;;16.65;5.38;;;4.70;99.90;;;;;;5079159;28;20031;-21
2023/12/01 06:45:19;;;;;;;14.80;5.17;;;3.70;99.90;;;;;;5066542;28;20015;-21
2023/12/01 06:47:48;;;;;;;14.88;5.03;;;3.70;99.90;;;;;;5075568;28;20249;-21
2023/12/01 06:50:18;;;;;;;16.73;5.57;;;3.70;99.90;;;;;;5069740;28;20035;-22
2023/12/01 06:52:46;;;;;;;14.65;4.75;;;3.70;99.90;;;;;;5070127;28;20950;-21
2023/12/01 06:55:12;;;;;;;14.02;4.45;;;3.70;99.90;;;;;;5068263;28;20160;-20
2023/12/01 06:57:41;;;;;;;13.63;4.20;;;2.70;99.90;;;;;;5066811;28;20035;-23
2023/12/01 07:00:09;;;;;;;17.70;5.18;;;3.90;99.90;;;;;;5083008;28;20248;-22
2023/12/01 07:02:38;;;;;;;15.43;5.00;;;3.70;99.90;;;;;;5058734;28;20024;-22
2023/12/01 07:05:19;;;;;;;17.98;4.97;;;3.80;99.90;;;;;;5080701;28;20395;-21
2023/12/01 07:07:45;;;;;;;17.75;5.75;;;3.70;99.90;;;;;;5061502;28;20139;-20
2023/12/01 07:10:11;;;;;;;21.57;6.50;;;3.70;99.90;;;;;;5073486;28;20034;-22
2023/12/01 07:12:36;;;;;;;15.80;4.75;;;3.70;99.90;;;;;;5074639;27;20449;-21
2023/12/01 07:15:02;;;;;;;16.87;5.40;;;3.70;99.90;;;;;;5085964;27;20032;-21
2023/12/01 07:17:29;;;;;;;17.58;5.82;;;3.70;99.90;;;;;;5062259;27;20086;-22
2023/12/01 07:19:55;;;;;;;20.42;5.80;;;3.70;99.90;;;;;;5087363;28;20513;-20
2023/12/01 07:22:22;;;;;;;17.80;5.40;;;3.70;99.90;;;;;;5077369;28;20024;-20
2023/12/01 07:24:49;;;;;;;16.67;4.60;;;3.70;99.90;;;;;;5065974;28;20480;-20
2023/12/01 07:27:14;;;;;;;17.20;5.05;;;3.70;99.90;;;;;;5090916;27;20115;-22
2023/12/01 07:29:41;;;;;;;18.23;5.60;;;3.70;99.90;;;;;;5076270;27;20030;-21
2023/12/01 07:32:07;;;;;;;16.33;4.40;;;3.80;99.90;;;;;;5066218;28;20066;-20
2023/12/01 07:34:34;;;;;;;18.55;5.53;;;3.80;99.90;;;;;;5086703;27;20048;-20
2023/12/01 07:36:59;;;;;;;14.48;4.30;;;3.80;99.90;;;;;;5073709;27;20550;-22
2023/12/01 07:39:25;;;;;;;18.90;5.97;;;3.70;99.90;;;;;;5074308;28;20531;-20
2023/12/01 07:41:51;;;;;;;18.70;6.03;;;3.80;99.90;;;;;;5072526;28;20373;-20
2023/12/01 07:44:17;;;;;;;20.93;6.73;;;3.70;99.90;;;;;;5077965;27;20028;-21
2023/12/01 07:46:43;;;;;;;15.50;4.40;;;3.80;99.90;;;;;;5061356;27;20278;-21
2023/12/01 07:49:11;;;;;;;18.65;5.72;;;3.80;99.90;;;;;;5087556;28;20713;-20
2023/12/01 07:51:40;;;;;;;15.63;4.80;;;3.80;99.90;;;;;;5084750;28;20357;-21
2023/12/01 07:54:06;;;;;;;19.85;6.10;;;3.70;99.90;;;;;;5071041;28;20300;-18
2023/12/01 07:56:32;;;;;;;22.77;6.20;;;3.80;99.90;;;;;;5073298;28;20031;-19
2023/12/01 07:58:58;;;;;;;22.53;6.90;;;3.80;99.90;;;;;;5062899;27;20520;-22
2023/12/01 08:01:23;;;;;;;20.60;5.93;;;3.80;99.90;;;;;;5087469;27;20489;-18
2023/12/01 08:03:49;;;;;;;20.50;5.75;;;3.80;99.90;;;;;;5063761;27;20034;-19
2023/12/01 08:06:15;;;;;;;20.67;5.80;;;3.80;99.90;;;;;;5089896;28;20390;-18
2023/12/01 08:08:41;;;;;;;24.02;7.15;;;2.60;99.90;;;;;;5077890;28;20663;-20
2023/12/01 08:11:07;;;;;;;22.35;6.55;;;3.80;99.90;;;;;;5076877;28;20340;-19
2023/12/01 08:13:33;;;;;;;25.77;6.53;;;3.80;99.90;;;;;;5074969;27;20113;-19
2023/12/01 08:15:59;;;;;;;20.83;6.40;;;3.80;99.90;;;;;;5074064;27;20110;-18
2023/12/01 08:18:25;;;;;;;25.55;7.70;;;3.80;99.90;;;;;;5065734;27;20035;-19
2023/12/01 08:20:51;;;;;;;25.10;7.90;;;3.70;99.90;;;;;;5085601;28;20022;-19
2023/12/01 08:23:17;;;;;;;20.85;6.78;;;3.70;99.90;;;;;;5086894;28;20040;-19
2023/12/01 08:25:43;;;;;;;20.58;6.38;;;3.70;99.90;;;;;;5067789;28;20074;-19
2023/12/01 08:28:09;;;;;;;24.00;7.47;;;3.70;99.90;;;;;;5044637;28;20032;-19
2023/12/01 08:30:36;;;;;;;18.90;5.40;;;3.70;99.90;;;;;;5048235;28;20051;-19
2023/12/01 08:33:02;;;;;;;26.70;8.27;;;3.70;99.90;;;;;;5037942;28;20089;-18
2023/12/01 08:35:28;;;;;;;24.35;7.47;;;3.70;99.90;;;;;;5089202;27;20034;-21
2023/12/01 08:37:54;;;;;;;24.85;7.03;;;3.70;99.90;;;;;;5083715;28;20649;-18
2023/12/01 08:40:20;;;;;;;23.50;6.67;;;3.70;99.90;;;;;;5071380;27;20031;-20
2023/12/01 08:42:46;;;;;;;20.05;5.85;;;3.70;99.90;;;;;;5060184;27;20231;-17
2023/12/01 08:45:12;;;;;;;23.55;7.90;;;3.60;99.90;;;;;;5077040;27;20489;-18
2023/12/01 08:47:39;;;;;;;23.70;8.03;;;3.70;99.90;;;;;;5051239;27;20118;-19
2023/12/01 08:50:05;;;;;;;23.58;6.95;;;5.10;99.90;;;;;;5088389;28;20031;-18
2023/12/01 08:52:31;;;;;;;18.27;5.38;;;3.60;99.90;;;;;;5081485;28;20038;-19
2023/12/01 08:54:58;;;;;;;22.73;7.50;;;3.70;99.90;;;;;;5090211;28;20044;-18
2023/12/01 08:57:24;;;;;;;18.63;6.25;;;3.70;99.90;;;;;;5073977;28;20159;-22
2023/12/01 08:59:50;;;;;;;34.47;9.10;;;3.70;99.90;;;;;;5078721;28;20046;-18
2023/12/01 09:02:16;;;;;;;33.93;9.90;;;3.80;99.90;;;;;;5068712;27;20591;-18
2023/12/01 09:04:41;;;;;;;30.55;9.60;;;1.70;99.90;;;;;;5022492;28;20056;-18
2023/12/01 09:07:07;;;;;;;29.50;8.50;;;3.70;99.90;;;;;;5084022;28;20542;-18
2023/12/01 09:09:33;;;;;;;29.75;8.98;;;3.60;99.90;;;;;;5077917;27;20024;-18
2023/12/01 09:11:59;;;;;;;25.98;8.88;;;3.60;99.90;;;;;;5077012;28;20067;-19
2023/12/01 09:14:24;;;;;;;22.90;8.00;;;3.60;99.90;;;;;;5075633;28;20716;-18
2023/12/01 09:16:50;;;;;;;25.17;7.82;;;3.70;99.90;;;;;;5071529;27;20508;-20
2023/12/01 09:19:16;;;;;;;27.43;9.17;;;3.70;99.90;;;;;;5038451;28;20680;-19
2023/12/01 09:21:42;;;;;;;30.55;10.10;;;3.60;99.90;;;;;;5085778;28;20081;-18
2023/12/01 09:24:07;;;;;;;24.27;7.83;;;3.70;99.90;;;;;;5073421;28;20170;-18
2023/12/01 09:26:33;;;;;;;20.98;6.88;;;3.60;99.90;;;;;;5075726;28;20024;-18
2023/12/01 09:28:59;;;;;;;21.83;6.90;;;3.60;99.90;;;;;;5082231;28;20062;-20
2023/12/01 09:31:25;;;;;;;25.47;7.80;;;3.70;99.90;;;;;;5065761;27;20283;-19
2023/12/01 09:33:50;;;;;;;18.85;6.38;;;3.80;99.90;;;;;;5062757;27;20051;-20
2023/12/01 09:36:17;;;;;;;27.63;8.43;;;3.60;99.90;;;;;;5072655;27;20110;-17
2023/12/01 09:38:49;;;;;;;27.27;9.10;;;3.70;99.90;;;;;;5083646;28;20069;-19
2023/12/01 09:41:16;;;;;;;25.80;8.52;;;3.70;99.90;;;;;;5062747;28;20046;-19
2023/12/01 09:43:43;;;;;;;25.97;8.27;;;3.70;99.90;;;;;;5077158;28;20020;-19
2023/12/01 09:46:11;;;;;;;23.13;7.45;;;3.70;99.90;;;;;;5067568;28;20221;-17
2023/12/01 09:48:41;;;;;;;22.35;7.38;;;3.80;99.90;;;;;;5063888;28;20023;-23
2023/12/01 09:51:08;;;;;;;30.90;9.32;;;3.80;99.90;;;;;;5047142;28;20231;-18
2023/12/01 09:53:34;;;;;;;20.50;5.65;;;1.50;99.90;;;;;;5085699;28;20047;-18
2023/12/01 09:56:03;;;;;;;22.20;7.70;;;3.80;99.90;;;;;;5075415;28;20049;-21
2023/12/01 09:58:30;;;;;;;20.33;6.78;;;3.90;99.90;;;;;;5074747;28;20126;-18
2023/12/01 10:00:56;;;;;;;21.23;6.55;;;3.90;99.90;;;;;;5088283;28;20608;-19
2023/12/01 10:03:23;;;;;;;23.33;7.45;;;3.90;99.90;;;;;;5068567;28;20043;-17
2023/12/01 10:05:50;;;;;;;26.30;7.67;;;3.90;99.90;;;;;;5052922;27;20028;-20
2023/12/01 10:08:16;;;;;;;19.75;6.57;;;3.90;99.90;;;;;;5078033;28;20054;-18
2023/12/01 10:10:44;;;;;;;23.90;7.03;;;4.10;99.90;;;;;;5085052;28;20031;-20
2023/12/01 10:13:11;;;;;;;25.60;7.45;;;3.90;99.90;;;;;;5064522;28;20559;-18
2023/12/01 10:15:40;;;;;;;23.13;7.37;;;3.90;99.90;;;;;;5082735;28;20108;-21
2023/12/01 10:18:16;;;;;;;22.58;7.40;;;3.90;99.90;;;;;;5061185;28;20401;-17
2023/12/01 10:21:04;;;;;;;26.20;8.05;;;4.00;99.90;;;;;;5072639;28;20389;-18
2023/12/01 10:23:30;;;;;;;21.52;6.85;;;4.00;99.90;;;;;;5085680;28;20110;-21
2023/12/01 10:25:57;;;;;;;19.83;7.25;;;4.00;99.90;;;;;;5080282;28;20077;-21
2023/12/01 10:28:36;;;;;;;17.30;5.93;;;4.00;99.90;;;;;;5078205;28;20425;-22
2023/12/01 10:31:03;;;;;;;19.90;6.03;;;4.00;99.90;;;;;;5069731;28;20085;-22
2023/12/01 10:33:29;;;;;;;21.38;6.70;;;4.00;99.90;;;;;;5068700;28;20731;-22
2023/12/01 10:35:58;;;;;;;27.50;8.73;;;4.10;99.90;;;;;;5067757;28;20032;-20
2023/12/01 10:38:28;;;;;;;24.47;7.67;;;4.10;99.90;;;;;;5059328;28;20020;-22
2023/12/01 10:40:55;;;;;;;24.65;7.60;;;4.00;99.90;;;;;;5084850;28;20463;-20
2023/12/01 10:43:21;;;;;;;29.50;8.35;;;4.10;99.90;;;;;;5084212;28;20167;-21
2023/12/01 10:45:52;;;;;;;26.65;7.78;;;4.10;99.90;;;;;;5068969;28;20042;-22
2023/12/01 10:48:19;;;;;;;22.55;6.90;;;4.10;99.90;;;;;;5075661;28;20139;-24
2023/12/01 10:50:47;;;;;;;25.50;8.03;;;4.10;99.90;;;;;;5072710;28;20028;-20
2023/12/01 10:53:15;;;;;;;26.42;7.72;;;4.10;99.90;;;;;;5046017;27;20463;-22
2023/12/01 10:55:48;;;;;;;22.90;8.13;;;4.10;99.90;;;;;;5083898;28;20019;-22
2023/12/01 10:58:22;;;;;;;21.13;6.78;;;4.10;99.90;;;;;;5084697;28;20079;-22
2023/12/01 11:00:57;;;;;;;19.98;6.28;;;4.10;99.90;;;;;;5078541;27;20031;-23
2023/12/01 11:03:28;;;;;;;21.63;6.27;;;4.10;99.90;;;;;;5074800;27;20034;-20
2023/12/01 11:06:01;;;;;;;17.60;5.53;;;4.20;99.90;;;;;;5086802;28;20609;-21
2023/12/01 11:08:49;;;;;;;20.17;6.18;;;4.20;99.90;;;;;;5052564;28;20019;-21
2023/12/01 11:11:23;;;;;;;18.77;6.10;;;4.20;99.90;;;;;;5084336;27;20520;-22
2023/12/01 11:14:18;;;;;;;15.85;5.05;;;4.20;99.90;;;;;;5086928;28;20056;-22
2023/12/01 11:16:47;;;;;;;17.43;5.77;;;2.70;99.90;;;;;;5079030;28;20439;-20
2023/12/01 11:19:18;;;;;;;20.63;6.10;;;4.20;99.90;;;;;;5069014;22;20057;-23
2023/12/01 11:21:44;;;;;;;19.65;6.65;;;4.20;99.90;;;;;;5041504;28;20643;-23
2023/12/01 11:24:42;;;;;;;15.95;5.03;;;4.20;99.90;;;;;;5004213;28;20060;-21
2023/12/01 11:27:10;;;;;;;22.90;7.13;;;4.30;99.90;;;;;;5032647;28;20037;-21
2023/12/01 11:29:36;;;;;;;17.60;6.30;;;4.30;99.90;;;;;;5034350;28;20026;-21
2023/12/01 11:32:04;;;;;;;22.10;6.85;;;4.30;99.90;;;;;;5029227;28;20028;-21
2023/12/01 11:34:30;;;;;;;18.63;6.28;;;4.30;99.90;;;;;;5017192;28;20632;-23
2023/12/01 11:36:58;;;;;;;18.48;5.88;;;4.50;99.90;;;;;;5039467;28;20966;-23
2023/12/01 11:39:29;;;;;;;17.88;5.45;;;4.40;99.90;;;;;;5001826;28;20237;-23
2023/12/01 11:42:09;;;;;;;14.17;4.83;;;4.30;99.90;;;;;;5035725;28;20536;-23
2023/12/01 11:44:40;;;;;;;17.65;5.50;;;4.40;99.90;;;;;;5036668;28;20029;-21
2023/12/01 11:47:13;;;;;;;17.45;5.45;;;4.40;99.90;;;;;;5037937;28;20097;-21
2023/12/01 11:49:40;;;;;;;20.30;6.18;;;4.30;99.90;;;;;;5014934;28;24072;-21
2023/12/01 11:52:10;;;;;;;22.40;7.07;;;4.40;99.90;;;;;;5035327;28;20454;-21
2023/12/01 11:54:37;;;;;;;20.10;6.83;;;4.40;99.90;;;;;;5001623;28;20035;-23
2023/12/01 11:57:10;;;;;;;17.33;5.80;;;4.40;99.90;;;;;;5033194;28;20128;-24
2023/12/01 11:59:37;;;;;;;18.70;6.80;;;4.40;99.90;;;;;;5029596;28;20037;-24
2023/12/01 12:02:03;;;;;;;19.23;6.60;;;4.40;99.90;;;;;;5031352;28;20486;-23
2023/12/01 12:04:29;;;;;;;22.25;6.60;;;4.40;99.90;;;;;;5013422;28;20063;-23
2023/12/01 12:07:00;;;;;;;18.33;5.30;;;4.40;99.90;;;;;;5031952;28;20025;-23
2023/12/01 12:09:31;;;;;;;17.35;5.57;;;4.50;99.90;;;;;;5007186;28;20028;-23
2023/12/01 12:11:58;;;;;;;16.50;5.30;;;4.50;99.90;;;;;;5033885;28;20068;-23
2023/12/01 12:14:25;;;;;;;17.65;6.38;;;4.50;99.90;;;;;;5030802;28;20041;-23
2023/12/01 12:16:51;;;;;;;18.05;5.88;;;4.50;99.90;;;;;;5033180;28;20052;-23
2023/12/01 12:19:20;;;;;;;17.50;5.70;;;4.50;99.90;;;;;;5023732;28;20511;-23
2023/12/01 12:21:47;;;;;;;19.65;6.53;;;4.50;99.90;;;;;;5022216;28;20101;-23
2023/12/01 12:24:13;;;;;;;22.27;7.03;;;4.50;99.90;;;;;;5030368;28;20113;-23
2023/12/01 12:26:39;;;;;;;19.73;6.55;;;4.50;99.90;;;;;;5008251;28;20407;-23
2023/12/01 12:29:06;;;;;;;19.40;6.17;;;4.50;99.90;;;;;;5033204;28;20028;-23
2023/12/01 12:31:35;;;;;;;16.65;5.70;;;4.50;99.90;;;;;;5029067;28;21351;-24
2023/12/01 12:34:03;;;;;;;15.82;6.20;;;4.50;99.90;;;;;;5034004;28;20025;-23
2023/12/01 12:36:31;;;;;;;18.85;5.65;;;4.50;99.90;;;;;;5010352;28;21504;-23
2023/12/01 12:39:03;;;;;;;17.30;5.95;;;4.60;99.90;;;;;;5035322;28;20078;-24
2023/12/01 12:41:40;;;;;;;16.93;5.60;;;4.60;99.90;;;;;;5006660;28;20246;-24
2023/12/01 12:44:11;;;;;;;16.70;5.47;;;4.60;99.90;;;;;;5038317;28;20032;-23
2023/12/01 12:46:37;;;;;;;18.33;6.13;;;4.60;99.90;;;;;;5034891;28;20025;-23
2023/12/01 12:49:07;;;;;;;20.73;6.97;;;4.60;99.90;;;;;;5032650;28;20578;-25